createdAt,value
2023-01-12T00:00:36.901Z,98296.66
2023-01-12T00:03:09.972Z,98281.81
2023-01-12T00:05:43.059Z,98277.16
2023-01-12T00:08:17.509Z,98276.88
2023-01-12T00:10:50.550Z,98284.22
2023-01-12T00:13:23.634Z,98285.31
2023-01-12T00:16:16.191Z,98277.72
2023-01-12T00:18:49.715Z,98283.41
2023-01-12T00:21:22.765Z,98292.03
2023-01-12T00:23:57.190Z,98289.50
2023-01-12T00:26:30.219Z,98299.31
2023-01-12T00:29:03.407Z,98305.50
2023-01-12T00:31:36.673Z,98301.31
2023-01-12T00:34:10.102Z,98302.81
2023-01-12T00:36:44.071Z,98296.59
2023-01-12T00:39:18.858Z,98287.34
2023-01-12T00:42:09.275Z,98300.00
2023-01-12T00:45:00.207Z,98295.91
2023-01-12T00:47:33.390Z,98298.44
2023-01-12T00:50:07.224Z,98297.22
2023-01-12T00:52:40.285Z,98294.44
2023-01-12T00:55:14.912Z,98299.50
2023-01-12T00:57:48.093Z,98291.09
2023-01-12T01:00:21.503Z,98294.81
2023-01-12T01:02:54.569Z,98288.22
2023-01-12T01:05:27.699Z,98283.69
2023-01-12T01:08:00.754Z,98278.69
2023-01-12T01:10:35.186Z,98266.53
2023-01-12T01:13:08.279Z,98270.88
2023-01-12T01:15:41.385Z,98276.44
2023-01-12T01:18:14.475Z,98272.53
2023-01-12T01:20:48.456Z,98276.84
2023-01-12T01:23:21.798Z,98274.78
2023-01-12T01:25:56.644Z,98285.84
2023-01-12T01:28:29.697Z,98285.06
2023-01-12T01:31:07.630Z,98280.75
2023-01-12T01:33:41.656Z,98290.53
2023-01-12T01:36:16.064Z,98285.44
2023-01-12T01:38:51.312Z,98278.41
2023-01-12T01:41:27.983Z,98277.78
2023-01-12T01:44:03.861Z,98272.72
2023-01-12T01:46:43.692Z,98283.25
2023-01-12T01:49:29.970Z,98283.00
2023-01-12T01:52:07.819Z,98294.16
2023-01-12T01:54:45.255Z,98288.16
2023-01-12T01:57:20.255Z,98287.31
2023-01-12T01:59:56.905Z,98289.63
2023-01-12T02:02:30.188Z,98283.75
2023-01-12T02:05:03.693Z,98294.91
2023-01-12T02:07:36.876Z,98295.88
2023-01-12T02:10:11.637Z,98305.94
2023-01-12T02:13:04.164Z,98292.06
2023-01-12T02:16:07.223Z,98288.38
2023-01-12T02:18:48.294Z,98280.88
2023-01-12T02:21:44.667Z,98284.44
2023-01-12T02:25:07.388Z,98277.31
2023-01-12T02:28:22.084Z,98273.63
2023-01-12T02:31:36.934Z,98257.09
2023-01-12T02:34:24.509Z,98260.28
2023-01-12T02:37:08.938Z,98257.34
2023-01-12T02:39:46.381Z,98250.84
2023-01-12T02:42:47.533Z,98238.63
2023-01-12T02:45:33.667Z,98241.28
2023-01-12T02:48:16.365Z,98239.56
2023-01-12T02:50:57.253Z,98234.38
2023-01-12T02:53:35.414Z,98226.50
2023-01-12T02:56:09.216Z,98219.34
2023-01-12T02:58:46.137Z,98208.31
2023-01-12T03:01:21.631Z,98214.16
2023-01-12T03:04:01.092Z,98213.50
2023-01-12T03:06:46.493Z,98202.44
2023-01-12T03:09:20.434Z,98203.56
2023-01-12T03:11:59.819Z,98201.50
2023-01-12T03:14:35.072Z,98187.25
2023-01-12T03:17:15.920Z,98193.81
2023-01-12T03:19:51.564Z,98191.88
2023-01-12T03:22:25.316Z,98188.34
2023-01-12T03:25:02.908Z,98191.03
2023-01-12T03:27:40.252Z,98203.34
2023-01-12T03:30:20.913Z,98193.34
2023-01-12T03:32:54.155Z,98185.81
2023-01-12T03:35:33.779Z,98194.31
2023-01-12T03:38:14.158Z,98207.47
2023-01-12T03:40:52.017Z,98201.69
2023-01-12T03:43:32.654Z,98195.25
2023-01-12T03:46:13.982Z,98205.06
2023-01-12T03:48:52.687Z,98208.47
2023-01-12T03:51:30.835Z,98201.03
2023-01-12T03:54:05.843Z,98203.34
2023-01-12T03:56:40.868Z,98201.94
2023-01-12T03:59:15.320Z,98198.06
2023-01-12T04:01:49.150Z,98198.94
2023-01-12T04:04:23.660Z,98192.63
2023-01-12T04:06:59.836Z,98202.28
2023-01-12T04:09:34.102Z,98214.47
2023-01-12T04:12:13.728Z,98203.34
2023-01-12T04:14:48.635Z,98206.16
2023-01-12T04:17:25.056Z,98199.06
2023-01-12T04:19:58.103Z,98205.19
2023-01-12T04:22:43.466Z,98201.63
2023-01-12T04:25:19.481Z,98205.38
2023-01-12T04:27:55.930Z,98198.44
2023-01-12T04:30:30.726Z,98215.41
2023-01-12T04:33:09.301Z,98199.78
2023-01-12T04:35:42.390Z,98191.16
2023-01-12T04:38:18.169Z,98196.78
2023-01-12T04:40:55.277Z,98199.56
2023-01-12T04:43:28.366Z,98200.75
2023-01-12T04:46:07.283Z,98188.91
2023-01-12T04:48:40.761Z,98177.41
2023-01-12T04:51:14.024Z,98185.53
2023-01-12T04:53:49.196Z,98184.88
2023-01-12T04:56:22.403Z,98173.38
2023-01-12T04:58:59.544Z,98169.72
2023-01-12T05:01:32.709Z,98173.75
2023-01-12T05:04:07.906Z,98169.13
2023-01-12T05:06:41.299Z,98161.00
2023-01-12T05:09:33.560Z,98174.44
2023-01-12T05:12:07.238Z,98152.56
2023-01-12T05:14:40.347Z,98148.78
2023-01-12T05:17:13.482Z,98160.19
2023-01-12T05:19:48.349Z,98151.09
2023-01-12T05:22:21.393Z,98159.44
2023-01-12T05:24:55.880Z,98146.88
2023-01-12T05:27:28.937Z,98145.22
2023-01-12T05:30:01.988Z,98145.22
2023-01-12T05:32:38.216Z,98137.91
2023-01-12T05:35:11.449Z,98144.34
2023-01-12T05:37:44.536Z,98148.69
2023-01-12T05:40:19.239Z,98141.00
2023-01-12T05:43:22.089Z,98145.66
2023-01-12T05:45:55.139Z,98144.19
2023-01-12T05:48:28.210Z,98133.28
2023-01-12T05:51:02.729Z,98132.53
2023-01-12T05:53:35.867Z,98126.56
2023-01-12T05:56:13.523Z,98128.56
2023-01-12T05:58:51.247Z,98128.91
2023-01-12T06:01:24.785Z,98120.56
2023-01-12T06:04:00.612Z,98121.94
2023-01-12T06:06:33.838Z,98122.03
2023-01-12T06:09:06.995Z,98126.56
2023-01-12T06:11:58.843Z,98124.25
2023-01-12T06:14:31.977Z,98126.44
2023-01-12T06:17:05.156Z,98113.72
2023-01-12T06:19:38.988Z,98107.97
2023-01-12T06:22:12.065Z,98111.19
2023-01-12T06:24:48.026Z,98091.72
2023-01-12T06:27:22.481Z,98092.84
2023-01-12T06:29:55.546Z,98088.72
2023-01-12T06:36:35.990Z,98096.25
2023-01-12T06:39:09.064Z,98095.38
2023-01-12T06:41:59.758Z,98089.31
2023-01-12T06:44:34.152Z,98086.72
2023-01-12T06:47:07.250Z,98098.78
2023-01-12T06:49:40.291Z,98097.56
2023-01-12T06:52:13.501Z,98099.34
2023-01-12T06:54:46.563Z,98103.00
2023-01-12T06:57:19.922Z,98093.69
2023-01-12T06:59:54.408Z,98097.78
2023-01-12T07:02:27.529Z,98103.22
2023-01-12T07:05:00.627Z,98095.78
2023-01-12T07:07:33.713Z,98089.84
2023-01-12T07:10:07.395Z,98090.47
2023-01-12T07:12:41.229Z,98096.34
2023-01-12T07:15:16.447Z,98095.44
2023-01-12T07:17:53.344Z,98090.72
2023-01-12T07:20:28.538Z,98093.59
2023-01-12T07:23:01.763Z,98083.16
2023-01-12T07:25:34.875Z,98090.59
2023-01-12T07:28:07.930Z,98083.50
2023-01-12T07:30:42.331Z,98091.25
2023-01-12T07:33:18.599Z,98086.25
2023-01-12T07:35:51.856Z,98079.19
2023-01-12T07:38:25.472Z,98080.50
2023-01-12T07:41:00.157Z,98075.63
2023-01-12T07:43:33.744Z,98084.25
2023-01-12T07:46:08.316Z,98081.91
2023-01-12T07:48:41.407Z,98087.88
2023-01-12T07:51:14.695Z,98088.75
2023-01-12T07:53:49.092Z,98089.19
2023-01-12T07:56:22.209Z,98086.44
2023-01-12T07:58:55.361Z,98081.53
2023-01-12T08:01:32.435Z,98089.63
2023-01-12T08:04:05.963Z,98086.19
2023-01-12T08:06:39.126Z,98088.50
2023-01-12T08:09:12.220Z,98101.00
2023-01-12T08:11:45.305Z,98096.16
2023-01-12T08:14:28.839Z,98093.94
2023-01-12T08:17:04.937Z,98095.03
2023-01-12T08:19:44.722Z,98092.69
2023-01-12T08:22:22.082Z,98077.97
2023-01-12T08:25:01.161Z,98075.75
2023-01-12T08:27:38.749Z,98079.06
2023-01-12T08:30:16.596Z,98070.50
2023-01-12T08:32:51.349Z,98084.06
2023-01-12T08:35:27.489Z,98072.38
2023-01-12T08:38:00.728Z,98085.94
2023-01-12T08:40:47.671Z,98077.66
2023-01-12T08:43:40.677Z,98080.69
2023-01-12T08:46:13.847Z,98069.34
2023-01-12T08:48:48.294Z,98069.06
2023-01-12T08:51:21.597Z,98069.16
2023-01-12T08:53:54.731Z,98070.53
2023-01-12T08:56:27.789Z,98065.44
2023-01-12T08:59:01.754Z,98059.66
2023-01-12T09:01:35.750Z,98060.38
2023-01-12T09:04:10.283Z,98062.13
2023-01-12T09:06:45.301Z,98053.50
2023-01-12T09:09:21.924Z,98054.00
2023-01-12T09:11:55.274Z,98065.06
2023-01-12T09:14:29.460Z,98068.03
2023-01-12T09:17:02.550Z,98059.97
2023-01-12T09:19:37.110Z,98053.09
2023-01-12T09:22:12.163Z,98053.00
2023-01-12T09:24:45.517Z,98062.63
2023-01-12T09:27:18.583Z,98052.81
2023-01-12T09:29:51.610Z,98062.44
2023-01-12T09:32:29.100Z,98053.00
2023-01-12T09:35:11.012Z,98059.88
2023-01-12T09:37:44.990Z,98067.25
2023-01-12T09:40:20.509Z,98070.38
2023-01-12T09:43:11.585Z,98065.97
2023-01-12T09:46:03.125Z,98086.50
2023-01-12T09:48:36.276Z,98075.69
2023-01-12T09:51:18.446Z,98074.69
2023-01-12T09:53:51.554Z,98083.25
2023-01-12T09:56:30.728Z,98080.97
2023-01-12T09:59:19.565Z,98086.50
2023-01-12T10:01:54.412Z,98076.47
2023-01-12T10:04:27.920Z,98079.31
2023-01-12T10:07:02.429Z,98066.66
2023-01-12T10:09:37.947Z,98070.28
2023-01-12T10:12:22.861Z,98073.44
2023-01-12T10:15:26.574Z,98063.69
2023-01-12T10:18:05.470Z,98068.63
2023-01-12T10:20:41.271Z,98058.59
2023-01-12T10:23:24.618Z,98058.22
2023-01-12T10:26:10.388Z,98050.63
2023-01-12T10:28:46.561Z,98041.91
2023-01-12T10:31:24.197Z,98037.69
2023-01-12T10:34:06.944Z,98030.13
2023-01-12T10:36:45.267Z,98023.53
2023-01-12T10:39:32.240Z,98032.69
2023-01-12T10:42:50.784Z,98024.91
2023-01-12T10:45:25.859Z,98026.22
2023-01-12T10:47:58.949Z,98017.88
2023-01-12T10:50:35.179Z,98014.63
2023-01-12T10:53:16.603Z,98014.41
2023-01-12T10:55:51.240Z,98027.78
2023-01-12T10:58:30.408Z,98034.63
2023-01-12T11:01:06.532Z,98021.25
2023-01-12T11:03:42.070Z,98024.22
2023-01-12T11:06:27.840Z,98029.81
2023-01-12T11:09:20.295Z,98029.13
2023-01-12T11:12:00.695Z,98033.13
2023-01-12T11:14:37.990Z,98025.94
2023-01-12T11:17:32.835Z,98020.44
2023-01-12T11:20:16.650Z,98023.59
2023-01-12T11:22:54.633Z,98008.28
2023-01-12T11:25:31.903Z,98005.22
2023-01-12T11:28:15.621Z,97997.56
2023-01-12T11:30:54.989Z,97988.22
2023-01-12T11:33:33.855Z,97981.34
2023-01-12T11:36:10.138Z,97979.78
2023-01-12T11:38:46.377Z,97978.19
2023-01-12T11:41:25.488Z,97965.75
2023-01-12T11:44:12.153Z,97964.50
2023-01-12T11:46:48.355Z,97971.66
2023-01-12T11:49:28.152Z,97979.78
2023-01-12T11:52:02.936Z,97977.00
2023-01-12T11:54:39.605Z,97979.19
2023-01-12T11:57:38.872Z,97963.66
2023-01-12T12:00:33.038Z,97971.50
2023-01-12T12:03:32.293Z,97972.50
2023-01-12T12:06:22.678Z,97966.75
2023-01-12T12:09:09.958Z,97951.13
2023-01-12T12:11:51.961Z,97936.28
2023-01-12T12:14:49.466Z,97939.59
2023-01-12T12:17:33.489Z,97924.38
2023-01-12T12:20:20.333Z,97930.69
2023-01-12T12:23:07.863Z,97907.19
2023-01-12T12:25:53.964Z,97920.31
2023-01-12T12:28:48.310Z,97920.66
2023-01-12T12:31:45.809Z,97915.53
2023-01-12T12:34:49.282Z,97908.78
2023-01-12T12:37:36.442Z,97917.56
2023-01-12T12:40:25.221Z,97900.94
2023-01-12T12:43:28.281Z,97896.72
2023-01-12T12:46:10.651Z,97908.34
2023-01-12T12:48:56.487Z,97907.63
2023-01-12T12:51:34.010Z,97898.28
2023-01-12T12:54:11.930Z,97898.81
2023-01-12T12:56:45.903Z,97890.78
2023-01-12T12:59:59.750Z,97894.59
2023-01-12T13:02:39.575Z,97886.81
2023-01-12T13:05:12.631Z,97885.22
2023-01-12T13:07:53.699Z,97889.47
2023-01-12T13:10:32.837Z,97898.44
2023-01-12T13:13:30.395Z,97889.44
2023-01-12T13:16:49.133Z,97897.38
2023-01-12T13:19:38.787Z,97900.88
2023-01-12T13:22:32.171Z,97895.38
2023-01-12T13:25:57.445Z,97894.00
2023-01-12T13:28:30.429Z,97899.09
2023-01-12T13:31:06.384Z,97902.28
2023-01-12T13:33:39.411Z,97899.91
2023-01-12T13:36:12.467Z,97896.19
2023-01-12T13:39:04.919Z,97894.84
2023-01-12T13:42:04.049Z,97875.72
2023-01-12T13:44:41.248Z,97897.00
2023-01-12T13:47:20.314Z,97881.72
2023-01-12T13:49:58.236Z,97897.44
2023-01-12T13:52:34.077Z,97888.72
2023-01-12T13:55:20.926Z,97887.47
2023-01-12T13:58:01.087Z,97893.34
2023-01-12T14:00:35.063Z,97892.44
2023-01-12T14:03:22.836Z,97892.44
2023-01-12T14:06:03.511Z,97884.59
2023-01-12T14:09:01.009Z,97891.72
2023-01-12T14:12:25.018Z,97899.31
2023-01-12T14:15:33.358Z,97896.06
2023-01-12T14:18:09.176Z,97888.75
2023-01-12T14:20:45.957Z,97902.16
2023-01-12T14:23:23.936Z,97886.03
2023-01-12T14:26:14.726Z,97887.00
2023-01-12T14:28:50.363Z,97882.94
2023-01-12T14:31:37.503Z,97882.88
2023-01-12T14:34:27.421Z,97872.72
2023-01-12T14:37:01.335Z,97867.00
2023-01-12T14:39:41.290Z,97858.09
2023-01-12T14:42:36.101Z,97867.09
2023-01-12T14:45:42.281Z,97866.41
2023-01-12T14:48:28.793Z,97850.88
2023-01-12T14:51:13.147Z,97861.72
2023-01-12T14:53:48.986Z,97858.72
2023-01-12T14:56:25.090Z,97855.81
2023-01-12T14:59:10.248Z,97872.22
2023-01-12T15:01:44.042Z,97852.81
2023-01-12T15:04:22.207Z,97855.47
2023-01-12T15:07:03.520Z,97860.06
2023-01-12T15:09:52.995Z,97862.34
2023-01-12T15:12:47.322Z,97853.16
2023-01-12T15:15:23.828Z,97862.59
2023-01-12T15:18:14.909Z,97865.00
2023-01-12T15:21:06.771Z,97859.88
2023-01-12T15:23:57.246Z,97877.50
2023-01-12T15:26:30.216Z,97880.16
2023-01-12T15:29:03.248Z,97883.84
2023-01-12T15:31:38.649Z,97872.47
2023-01-12T15:34:12.857Z,97864.00
2023-01-12T15:36:47.175Z,97871.50
2023-01-12T15:39:20.379Z,97861.47
2023-01-12T15:42:10.959Z,97867.16
2023-01-12T15:44:45.055Z,97875.97
2023-01-12T15:47:19.987Z,97864.00
2023-01-12T15:49:53.442Z,97866.75
2023-01-12T15:52:28.182Z,97857.75
2023-01-12T15:55:01.216Z,97875.81
2023-01-12T15:57:34.256Z,97873.09
2023-01-12T16:00:11.113Z,97872.91
2023-01-12T16:02:47.724Z,97873.53
2023-01-12T16:05:23.629Z,97863.03
2023-01-12T16:07:58.223Z,97863.38
2023-01-12T16:10:31.218Z,97864.44
2023-01-12T16:13:07.821Z,97853.16
2023-01-12T16:15:40.879Z,97864.00
2023-01-12T16:18:14.783Z,97854.50
2023-01-12T16:20:47.919Z,97861.28
2023-01-12T16:23:22.264Z,97857.38
2023-01-12T16:25:57.234Z,97867.16
2023-01-12T16:28:30.657Z,97856.16
2023-01-12T16:31:07.476Z,97858.03
2023-01-12T16:33:42.079Z,97856.34
2023-01-12T16:36:16.053Z,97853.84
2023-01-12T16:38:51.948Z,97851.56
2023-01-12T16:41:25.180Z,97858.09
2023-01-12T16:44:00.418Z,97870.34
2023-01-12T16:46:33.471Z,97864.81
2023-01-12T16:49:06.772Z,97867.78
2023-01-12T16:51:39.781Z,97864.59
2023-01-12T16:54:14.082Z,97858.63
2023-01-12T16:56:47.111Z,97856.34
2023-01-12T16:59:20.094Z,97854.75
2023-01-12T17:01:53.341Z,97854.38
2023-01-12T17:04:26.532Z,97863.72
2023-01-12T17:06:59.764Z,97846.94
2023-01-12T17:09:35.680Z,97849.03
2023-01-12T17:12:09.309Z,97848.50
2023-01-12T17:14:42.652Z,97844.44
2023-01-12T17:17:15.983Z,97840.72
2023-01-12T17:19:49.198Z,97846.94
2023-01-12T17:22:22.269Z,97843.63
2023-01-12T17:24:56.898Z,97856.00
2023-01-12T17:27:29.971Z,97846.13
2023-01-12T17:30:03.034Z,97844.34
2023-01-12T17:32:36.374Z,97846.66
2023-01-12T17:35:10.420Z,97852.47
2023-01-12T17:37:43.483Z,97852.97
2023-01-12T17:40:18.445Z,97849.63
2023-01-12T17:43:02.864Z,97847.69
2023-01-12T17:45:42.532Z,97852.28
2023-01-12T17:48:19.176Z,97851.66
2023-01-12T17:50:52.206Z,97851.94
2023-01-12T17:53:25.252Z,97845.44
2023-01-12T17:56:03.875Z,97850.69
2023-01-12T17:58:37.534Z,97840.75
2023-01-12T18:01:14.413Z,97831.34
2023-01-12T18:03:47.471Z,97836.69
2023-01-12T18:06:26.388Z,97828.84
2023-01-12T18:09:00.745Z,97832.03
2023-01-12T18:11:36.036Z,97833.06
2023-01-12T18:14:09.704Z,97818.59
2023-01-12T18:16:42.709Z,97812.22
2023-01-12T18:19:15.791Z,97813.88
2023-01-12T18:21:51.067Z,97816.00
2023-01-12T18:24:24.076Z,97808.75
2023-01-12T18:26:58.432Z,97820.31
2023-01-12T18:29:31.458Z,97816.53
2023-01-12T18:32:06.401Z,97811.50
2023-01-12T18:34:39.815Z,97812.81
2023-01-12T18:37:13.757Z,97816.88
2023-01-12T18:39:46.975Z,97810.56
2023-01-12T18:42:38.897Z,97808.75
2023-01-12T18:45:12.140Z,97816.88
2023-01-12T18:48:07.916Z,97807.00
2023-01-12T18:50:58.501Z,97810.38
2023-01-12T18:53:33.494Z,97794.50
2023-01-12T18:56:07.353Z,97808.38
2023-01-12T18:58:43.103Z,97806.22
2023-01-12T19:01:20.768Z,97806.47
2023-01-12T19:03:53.932Z,97806.84
2023-01-12T19:06:42.416Z,97801.09
2023-01-12T19:09:32.889Z,97793.63
2023-01-12T19:12:07.348Z,97792.66
2023-01-12T19:14:59.271Z,97792.13
2023-01-12T19:17:32.939Z,97792.88
2023-01-12T19:20:09.181Z,97789.09
2023-01-12T19:23:00.041Z,97789.81
2023-01-12T19:25:50.709Z,97792.47
2023-01-12T19:28:36.399Z,97790.63
2023-01-12T19:31:15.059Z,97792.03
2023-01-12T19:33:48.058Z,97795.91
2023-01-12T19:36:21.053Z,97797.75
2023-01-12T19:38:54.351Z,97792.38
2023-01-12T19:41:50.171Z,97800.84
2023-01-12T19:44:23.244Z,97794.50
2023-01-12T19:46:57.601Z,97792.84
2023-01-12T19:49:30.600Z,97787.25
2023-01-12T19:52:03.620Z,97772.97
2023-01-12T19:54:36.976Z,97786.59
2023-01-12T19:57:09.971Z,97781.19
2023-01-12T19:59:44.824Z,97770.63
2023-01-12T20:02:19.290Z,97772.63
2023-01-12T20:04:52.377Z,97773.19
2023-01-12T20:07:25.535Z,97771.34
2023-01-12T20:09:59.820Z,97776.00
2023-01-12T20:12:33.017Z,97767.00
2023-01-12T20:15:07.204Z,97770.19
2023-01-12T20:17:41.883Z,97769.75
2023-01-12T20:20:15.828Z,97768.22
2023-01-12T20:22:50.814Z,97773.88
2023-01-12T20:25:28.039Z,97769.84
2023-01-12T20:28:01.307Z,97767.34
2023-01-12T20:30:38.775Z,97764.41
2023-01-12T20:33:13.539Z,97758.19
2023-01-12T20:35:48.077Z,97759.97
2023-01-12T20:38:22.596Z,97749.97
2023-01-12T20:40:55.714Z,97752.28
2023-01-12T20:43:28.775Z,97741.41
2023-01-12T20:46:02.291Z,97743.75
2023-01-12T20:48:37.284Z,97750.88
2023-01-12T20:51:13.255Z,97749.06
2023-01-12T20:53:46.362Z,97735.13
2023-01-12T20:56:20.682Z,97720.22
2023-01-12T20:58:53.769Z,97727.19
2023-01-12T21:01:27.198Z,97725.94
2023-01-12T21:04:01.744Z,97726.31
2023-01-12T21:06:34.799Z,97730.63
2023-01-12T21:09:07.993Z,97714.75
2023-01-12T21:11:42.248Z,97714.31
2023-01-12T21:14:15.315Z,97709.88
2023-01-12T21:16:48.466Z,97718.38
2023-01-12T21:19:23.076Z,97711.59
2023-01-12T21:21:56.253Z,97708.94
2023-01-12T21:24:30.365Z,97697.22
2023-01-12T21:27:03.483Z,97700.66
2023-01-12T21:29:36.544Z,97694.31
2023-01-12T21:32:09.640Z,97704.47
2023-01-12T21:34:44.090Z,97699.84
2023-01-12T21:37:17.151Z,97686.59
2023-01-12T21:39:50.286Z,97685.88
2023-01-12T21:42:40.869Z,97684.28
2023-01-12T21:45:14.002Z,97677.03
2023-01-12T21:47:47.065Z,97671.84
2023-01-12T21:50:21.500Z,97682.56
2023-01-12T21:52:54.565Z,97678.28
2023-01-12T21:55:27.654Z,97676.97
2023-01-12T21:58:02.894Z,97682.06
2023-01-12T22:00:39.009Z,97691.69
2023-01-12T22:03:12.048Z,97683.81
2023-01-12T22:05:47.815Z,97684.94
2023-01-12T22:08:21.450Z,97683.97
2023-01-12T22:10:54.542Z,97673.75
2023-01-12T22:13:27.617Z,97683.47
2023-01-12T22:16:04.505Z,97675.97
2023-01-12T22:18:38.750Z,97678.06
2023-01-12T22:21:13.820Z,97682.06
2023-01-12T22:23:47.598Z,97680.13
2023-01-12T22:26:21.143Z,97670.53
2023-01-12T22:28:54.210Z,97670.50
2023-01-12T22:31:27.400Z,97665.22
2023-01-12T22:34:05.441Z,97664.13
2023-01-12T22:36:43.120Z,97669.44
2023-01-12T22:39:16.445Z,97667.44
2023-01-12T22:41:50.752Z,97667.81
2023-01-12T22:44:25.551Z,97671.38
2023-01-12T22:46:58.634Z,97663.69
2023-01-12T22:49:31.702Z,97668.47
2023-01-12T22:52:06.778Z,97680.31
2023-01-12T22:54:39.865Z,97665.00
2023-01-12T22:57:13.186Z,97667.38
2023-01-12T22:59:46.243Z,97653.25
2023-01-12T23:02:37.197Z,97649.44
2023-01-12T23:05:10.656Z,97651.00
2023-01-12T23:07:45.192Z,97649.91
2023-01-12T23:10:18.731Z,97643.34
2023-01-12T23:13:09.581Z,97631.31
2023-01-12T23:15:47.023Z,97634.03
2023-01-12T23:18:23.572Z,97632.25
2023-01-12T23:21:03.435Z,97631.38
2023-01-12T23:23:38.253Z,97632.25
2023-01-12T23:26:16.611Z,97630.00
2023-01-12T23:28:52.045Z,97626.41
2023-01-12T23:31:27.940Z,97632.72
2023-01-12T23:34:01.387Z,97631.38
2023-01-12T23:36:35.977Z,97624.84
2023-01-12T23:39:12.349Z,97621.63
2023-01-12T23:41:45.604Z,97629.53
2023-01-12T23:44:19.247Z,97623.41
2023-01-12T23:46:53.940Z,97624.44
2023-01-12T23:49:27.115Z,97622.69
2023-01-12T23:52:00.288Z,97625.84
2023-01-12T23:54:35.073Z,97616.13
2023-01-12T23:57:08.252Z,97628.19
2023-01-12T23:59:41.450Z,97613.72
